Time;durP1;ratioP1;P1;durP2;ratioP2;P2;SDS_P1;SDS_P2;PMS_P1;PMS_P2;Temp;Humidity;BMP_temperature;BMP_pressure;BME280_temperature;BME280_humidity;BME280_pressure;Samples;Min_cycle;Max_cycle;Signal;HPM_P1;HPM_P2
2023/12/27 00:01:18;;;;;;;2.60;0.70;;;6.70;99.90;;;;;;4994201;28;20234;-70
2023/12/27 00:03:43;;;;;;;1.70;0.87;;;6.70;99.90;;;;;;4999984;28;20195;-70
2023/12/27 00:06:09;;;;;;;5.00;1.73;;;7.50;99.90;;;;;;4996635;28;20222;-65
2023/12/27 00:08:35;;;;;;;2.43;0.93;;;6.80;99.90;;;;;;5001481;28;20212;-65
2023/12/27 00:11:04;;;;;;;4.93;1.60;;;7.50;99.90;;;;;;4997625;28;20205;-70
2023/12/27 00:13:29;;;;;;;3.90;1.10;;;6.90;99.90;;;;;;4987300;28;20431;-70
2023/12/27 00:15:55;;;;;;;1.20;0.70;;;7.40;99.90;;;;;;5008540;28;20485;-65
2023/12/27 00:18:21;;;;;;;1.40;0.70;;;7.40;99.90;;;;;;5000596;28;20227;-65
2023/12/27 00:20:47;;;;;;;4.70;1.20;;;6.70;99.90;;;;;;4997870;28;20184;-70
2023/12/27 00:23:13;;;;;;;4.80;1.63;;;7.10;99.90;;;;;;5005033;28;20429;-70
2023/12/27 00:25:39;;;;;;;1.50;1.00;;;6.60;99.90;;;;;;5006401;28;20867;-65
2023/12/27 00:28:05;;;;;;;5.13;1.37;;;6.60;99.90;;;;;;5006647;28;20425;-66
2023/12/27 00:30:31;;;;;;;3.87;1.73;;;6.60;99.90;;;;;;4997145;28;20233;-70
2023/12/27 00:32:57;;;;;;;3.07;1.37;;;6.60;99.90;;;;;;5004768;28;20524;-70
2023/12/27 00:35:22;;;;;;;4.27;1.70;;;7.00;99.90;;;;;;5003736;28;20507;-70
2023/12/27 00:37:48;;;;;;;5.77;1.67;;;6.70;99.90;;;;;;4978727;28;20477;-70
2023/12/27 00:40:14;;;;;;;2.40;0.80;;;6.70;99.90;;;;;;5003218;28;20187;-68
2023/12/27 00:42:39;;;;;;;2.30;1.07;;;6.60;99.90;;;;;;4994550;28;20184;-68
2023/12/27 00:45:05;;;;;;;2.17;1.30;;;6.60;99.90;;;;;;4996638;28;20621;-68
2023/12/27 00:47:30;;;;;;;4.80;1.67;;;6.60;99.90;;;;;;5013196;28;20183;-68
2023/12/27 00:49:57;;;;;;;1.90;1.00;;;6.60;99.90;;;;;;4998866;28;20660;-64
2023/12/27 00:52:22;;;;;;;3.10;1.40;;;7.10;99.90;;;;;;5005361;28;20640;-65
2023/12/27 00:54:48;;;;;;;1.93;0.83;;;6.50;99.90;;;;;;4987188;28;20475;-64
2023/12/27 00:57:13;;;;;;;2.67;1.20;;;6.90;99.90;;;;;;4988553;28;20238;-68
2023/12/27 00:59:38;;;;;;;4.30;1.03;;;6.50;99.90;;;;;;4995901;28;20188;-68
2023/12/27 01:02:06;;;;;;;2.90;0.80;;;6.80;99.90;;;;;;4995694;28;20198;-69
2023/12/27 01:04:32;;;;;;;1.90;0.67;;;6.70;99.90;;;;;;4995395;28;20191;-69
2023/12/27 01:06:57;;;;;;;5.30;1.10;;;6.50;99.90;;;;;;5012504;28;20426;-69
2023/12/27 01:09:23;;;;;;;1.83;0.90;;;6.60;99.90;;;;;;5010403;28;21011;-68
2023/12/27 01:11:48;;;;;;;3.73;1.43;;;6.70;99.90;;;;;;4990217;28;20193;-69
2023/12/27 01:14:16;;;;;;;1.90;0.93;;;7.00;99.90;;;;;;4990827;28;20202;-68
2023/12/27 01:16:42;;;;;;;1.50;0.80;;;6.50;99.90;;;;;;5014838;28;20566;-69
2023/12/27 01:19:07;;;;;;;5.47;0.93;;;6.60;99.90;;;;;;5000077;28;20470;-69
2023/12/27 01:21:33;;;;;;;3.00;0.90;;;6.50;99.90;;;;;;5003857;28;20179;-64
2023/12/27 01:23:58;;;;;;;4.13;1.00;;;6.80;99.90;;;;;;5000715;28;20544;-64
2023/12/27 01:26:24;;;;;;;2.43;0.97;;;6.40;99.90;;;;;;4993623;28;20319;-63
2023/12/27 01:28:49;;;;;;;1.87;1.10;;;6.40;99.90;;;;;;4994818;28;20714;-64
2023/12/27 01:31:15;;;;;;;3.83;1.10;;;6.40;99.90;;;;;;4999907;28;20190;-64
2023/12/27 01:33:41;;;;;;;5.17;1.50;;;6.40;99.90;;;;;;4997993;28;20177;-64
2023/12/27 01:36:07;;;;;;;4.13;1.20;;;6.40;99.90;;;;;;4996630;28;20282;-64
2023/12/27 01:38:33;;;;;;;4.10;1.37;;;6.40;99.90;;;;;;5011007;28;20894;-64
2023/12/27 01:40:59;;;;;;;5.33;1.27;;;6.40;99.90;;;;;;4994771;28;20415;-69
2023/12/27 01:43:24;;;;;;;3.87;1.27;;;6.80;99.90;;;;;;4992476;28;20211;-69
2023/12/27 01:45:50;;;;;;;2.23;0.73;;;6.40;99.90;;;;;;5003183;28;20191;-64
2023/12/27 01:48:20;;;;;;;6.17;1.30;;;6.40;99.90;;;;;;5011661;28;20187;-64
2023/12/27 01:50:47;;;;;;;2.47;1.00;;;6.70;99.90;;;;;;5003076;28;20433;-68
2023/12/27 01:53:12;;;;;;;2.30;1.40;;;6.50;99.90;;;;;;5001783;28;20950;-68
2023/12/27 01:55:38;;;;;;;1.90;0.80;;;6.80;99.90;;;;;;5000999;28;20477;-63
2023/12/27 01:58:08;;;;;;;1.80;0.80;;;6.50;99.90;;;;;;5000906;28;20188;-64
2023/12/27 02:00:37;;;;;;;1.60;0.70;;;6.90;99.90;;;;;;5003379;28;20176;-68
2023/12/27 02:03:03;;;;;;;2.20;0.83;;;6.60;99.90;;;;;;5007834;28;20422;-68
2023/12/27 02:05:28;;;;;;;11.00;2.10;;;6.50;99.90;;;;;;4993550;28;20423;-68
2023/12/27 02:07:55;;;;;;;2.50;1.40;;;6.90;99.90;;;;;;5006739;28;20470;-68
2023/12/27 02:10:21;;;;;;;2.70;0.70;;;6.50;99.90;;;;;;4994115;28;20184;-69
2023/12/27 02:12:46;;;;;;;1.60;0.83;;;6.50;99.90;;;;;;4989041;28;20493;-69
2023/12/27 02:15:12;;;;;;;5.70;1.50;;;6.50;99.90;;;;;;4994096;28;20262;-68
2023/12/27 02:17:38;;;;;;;3.67;1.33;;;6.60;99.90;;;;;;4976529;28;20227;-69
2023/12/27 02:20:04;;;;;;;2.23;0.97;;;6.50;99.90;;;;;;4993502;28;20621;-69
2023/12/27 02:22:31;;;;;;;1.70;0.93;;;6.50;99.90;;;;;;4993742;28;20443;-69
2023/12/27 02:24:57;;;;;;;2.07;0.93;;;6.70;99.90;;;;;;5002251;28;20434;-64
2023/12/27 02:27:23;;;;;;;1.50;0.90;;;6.40;99.90;;;;;;4999597;28;20556;-64
2023/12/27 02:29:48;;;;;;;2.23;0.90;;;6.40;99.90;;;;;;4996182;28;20260;-64
2023/12/27 02:32:14;;;;;;;2.20;1.33;;;6.20;99.90;;;;;;4997850;28;20636;-64
2023/12/27 02:34:39;;;;;;;8.83;1.93;;;6.10;99.90;;;;;;5001661;28;20290;-64
2023/12/27 02:37:05;;;;;;;10.93;1.20;;;6.10;99.90;;;;;;4997892;28;20194;-68
2023/12/27 02:39:30;;;;;;;1.47;0.73;;;6.50;99.90;;;;;;4993310;28;20699;-68
2023/12/27 02:41:56;;;;;;;4.37;1.27;;;5.90;99.90;;;;;;5008806;28;20187;-68
2023/12/27 02:44:25;;;;;;;1.60;0.90;;;6.00;99.90;;;;;;5001041;28;20644;-69
2023/12/27 02:46:51;;;;;;;3.97;1.30;;;5.80;99.90;;;;;;5007629;28;20180;-64
2023/12/27 02:49:17;;;;;;;1.63;0.83;;;6.40;99.90;;;;;;5002064;28;20561;-64
2023/12/27 02:51:42;;;;;;;2.67;0.90;;;5.80;99.90;;;;;;4992658;28;20207;-64
2023/12/27 02:54:07;;;;;;;2.50;0.93;;;5.80;99.90;;;;;;5004184;28;20270;-63
2023/12/27 02:56:33;;;;;;;2.37;1.03;;;5.80;99.90;;;;;;4990459;28;20188;-64
2023/12/27 02:58:58;;;;;;;1.20;0.70;;;5.80;99.90;;;;;;4991398;28;20191;-63
2023/12/27 03:01:24;;;;;;;1.10;0.53;;;5.90;99.90;;;;;;5000712;28;20188;-68
2023/12/27 03:03:49;;;;;;;1.83;0.70;;;6.40;99.90;;;;;;4993752;28;20184;-68
2023/12/27 03:06:15;;;;;;;2.13;1.10;;;5.90;99.90;;;;;;4992821;28;20576;-64
2023/12/27 03:08:40;;;;;;;5.30;1.47;;;6.00;99.90;;;;;;4993555;28;20263;-63
2023/12/27 03:11:09;;;;;;;3.27;1.23;;;6.80;99.90;;;;;;4998595;28;20534;-68
2023/12/27 03:13:35;;;;;;;3.20;1.37;;;5.90;99.90;;;;;;5000192;28;20580;-68
2023/12/27 03:16:07;;;;;;;6.77;1.63;;;6.00;99.90;;;;;;4995400;28;20474;-68
2023/12/27 03:18:35;;;;;;;5.13;0.90;;;6.40;99.90;;;;;;5012712;28;20465;-68
2023/12/27 03:21:01;;;;;;;4.83;1.50;;;6.10;99.90;;;;;;5005763;28;20979;-68
2023/12/27 03:23:27;;;;;;;3.20;1.00;;;6.10;99.90;;;;;;4998180;28;20508;-68
2023/12/27 03:25:53;;;;;;;2.83;1.10;;;6.40;99.90;;;;;;5005918;28;20187;-69
2023/12/27 03:28:19;;;;;;;2.40;1.17;;;6.00;99.90;;;;;;5005418;28;20187;-69
2023/12/27 03:30:45;;;;;;;5.10;1.50;;;6.10;99.90;;;;;;4993711;28;20923;-69
2023/12/27 03:33:10;;;;;;;4.37;1.70;;;6.10;99.90;;;;;;5012683;28;20529;-69
2023/12/27 03:35:36;;;;;;;3.50;1.30;;;6.70;99.90;;;;;;5011820;28;20237;-64
2023/12/27 03:38:01;;;;;;;2.43;0.93;;;6.20;99.90;;;;;;4999640;28;20176;-63
2023/12/27 03:40:27;;;;;;;3.23;1.57;;;6.20;99.90;;;;;;4999496;28;20180;-68
2023/12/27 03:42:53;;;;;;;3.60;1.33;;;6.10;99.90;;;;;;4992115;28;20231;-68
2023/12/27 03:45:18;;;;;;;3.73;1.10;;;6.10;99.90;;;;;;4996669;28;20191;-68
2023/12/27 03:47:47;;;;;;;4.83;1.40;;;6.80;99.90;;;;;;5009180;28;20191;-69
2023/12/27 03:50:13;;;;;;;7.13;1.70;;;6.20;99.90;;;;;;5004693;28;20202;-69
2023/12/27 03:52:38;;;;;;;2.17;1.37;;;6.20;99.90;;;;;;4999263;28;20413;-68
2023/12/27 03:55:05;;;;;;;1.63;0.97;;;6.80;99.90;;;;;;4994366;28;20687;-63
2023/12/27 03:57:30;;;;;;;2.90;1.20;;;6.20;99.90;;;;;;4999312;28;20195;-64
2023/12/27 03:59:56;;;;;;;5.10;1.40;;;6.80;99.90;;;;;;4993496;28;20419;-69
2023/12/27 04:02:21;;;;;;;5.20;1.20;;;6.30;99.90;;;;;;4999527;28;20180;-69
2023/12/27 04:04:47;;;;;;;3.10;1.53;;;6.30;99.90;;;;;;4992412;28;20634;-69
2023/12/27 04:07:13;;;;;;;12.13;1.77;;;6.30;99.90;;;;;;5011360;28;20198;-64
2023/12/27 04:09:39;;;;;;;2.90;1.50;;;6.20;99.90;;;;;;4992841;28;20188;-64
2023/12/27 04:12:06;;;;;;;2.87;1.37;;;6.70;99.90;;;;;;5003216;28;20430;-64
2023/12/27 04:14:32;;;;;;;1.70;1.17;;;6.10;99.90;;;;;;5011473;28;20473;-64
2023/12/27 04:16:57;;;;;;;2.43;1.33;;;6.10;99.90;;;;;;4999018;28;20455;-68
2023/12/27 04:19:23;;;;;;;2.90;1.00;;;6.60;99.90;;;;;;5005049;28;20182;-68
2023/12/27 04:21:48;;;;;;;3.20;1.10;;;6.10;99.90;;;;;;4998961;28;20187;-68
2023/12/27 04:24:14;;;;;;;6.63;0.77;;;6.10;99.90;;;;;;5003747;28;20679;-69
2023/12/27 04:26:40;;;;;;;5.30;1.47;;;6.20;99.90;;;;;;4999348;28;20251;-68
2023/12/27 04:29:07;;;;;;;3.50;1.03;;;6.10;99.90;;;;;;4994652;28;20200;-68
2023/12/27 04:31:32;;;;;;;2.30;0.90;;;6.00;99.90;;;;;;5004645;28;20549;-69
2023/12/27 04:33:58;;;;;;;2.10;1.00;;;5.90;99.90;;;;;;4994356;28;20505;-69
2023/12/27 04:36:23;;;;;;;1.80;1.00;;;6.50;99.90;;;;;;4999292;28;20194;-69
2023/12/27 04:38:49;;;;;;;4.30;1.37;;;5.70;99.90;;;;;;5008370;28;20183;-69
2023/12/27 04:41:14;;;;;;;1.50;1.00;;;5.60;99.90;;;;;;5005800;28;20278;-69
2023/12/27 04:43:40;;;;;;;2.27;1.17;;;5.50;99.90;;;;;;4990918;28;20188;-69
2023/12/27 04:46:06;;;;;;;10.57;1.70;;;5.40;99.90;;;;;;4998686;28;20192;-64
2023/12/27 04:48:33;;;;;;;3.00;0.93;;;5.30;99.90;;;;;;5005875;28;20270;-64
2023/12/27 04:50:58;;;;;;;2.40;1.40;;;5.20;99.90;;;;;;4998871;28;20450;-69
2023/12/27 04:53:24;;;;;;;3.20;1.37;;;5.20;99.90;;;;;;4999034;28;20466;-69
2023/12/27 04:55:49;;;;;;;4.17;0.90;;;5.10;99.90;;;;;;4991523;28;20208;-69
2023/12/27 04:58:15;;;;;;;2.77;1.23;;;5.30;99.90;;;;;;4984666;28;20195;-69
2023/12/27 05:00:40;;;;;;;2.27;1.53;;;5.00;99.90;;;;;;5000292;28;20194;-69
2023/12/27 05:03:06;;;;;;;2.50;1.47;;;5.00;99.90;;;;;;4998691;28;20183;-69
2023/12/27 05:05:31;;;;;;;2.33;1.23;;;4.90;99.90;;;;;;4994888;28;20191;-69
2023/12/27 05:07:57;;;;;;;4.20;1.77;;;4.90;99.90;;;;;;5008546;28;20190;-69
2023/12/27 05:10:22;;;;;;;4.03;1.33;;;4.90;99.90;;;;;;4999784;28;20187;-69
2023/12/27 05:12:48;;;;;;;6.93;1.80;;;4.80;99.90;;;;;;4996510;28;20202;-69
2023/12/27 05:15:13;;;;;;;1.27;0.70;;;4.80;99.90;;;;;;5006808;28;20591;-69
2023/12/27 05:17:39;;;;;;;1.90;1.17;;;4.80;99.90;;;;;;4996052;28;20220;-69
2023/12/27 05:20:05;;;;;;;3.73;1.40;;;4.70;99.90;;;;;;5001204;28;20188;-68
2023/12/27 05:22:33;;;;;;;4.07;1.37;;;4.60;99.90;;;;;;4995171;28;20194;-68
2023/12/27 05:25:00;;;;;;;2.55;1.30;;;4.80;99.90;;;;;;4999331;28;20742;-68
2023/12/27 05:27:25;;;;;;;2.43;1.13;;;4.50;99.90;;;;;;5004021;28;20180;-68
2023/12/27 05:29:51;;;;;;;3.40;1.30;;;4.60;99.90;;;;;;4994525;28;20430;-67
2023/12/27 05:32:17;;;;;;;2.23;1.10;;;4.30;99.90;;;;;;4991913;28;20196;-69
2023/12/27 05:34:42;;;;;;;1.83;1.07;;;4.40;99.90;;;;;;4988189;28;20210;-69
2023/12/27 05:37:08;;;;;;;7.13;1.30;;;4.20;99.90;;;;;;4993414;28;20184;-70
2023/12/27 05:39:34;;;;;;;6.27;1.20;;;4.20;99.90;;;;;;4994663;28;20180;-70
2023/12/27 05:41:59;;;;;;;8.33;1.30;;;4.20;99.90;;;;;;4996170;28;20802;-70
2023/12/27 05:44:25;;;;;;;2.57;1.10;;;4.20;99.90;;;;;;5006536;28;20199;-70
2023/12/27 05:46:51;;;;;;;1.70;1.10;;;4.20;99.90;;;;;;4980375;28;20555;-64
2023/12/27 05:49:16;;;;;;;3.17;1.30;;;4.20;99.90;;;;;;4994794;28;20194;-65
2023/12/27 05:51:42;;;;;;;2.37;1.10;;;4.20;99.90;;;;;;5002099;28;20195;-69
2023/12/27 05:54:09;;;;;;;5.83;1.43;;;4.30;99.90;;;;;;4994743;28;20190;-70
2023/12/27 05:56:35;;;;;;;1.43;0.60;;;4.20;99.90;;;;;;5003068;28;20542;-70
2023/12/27 05:59:00;;;;;;;1.50;0.97;;;4.20;99.90;;;;;;4994523;28;20464;-70
2023/12/27 06:01:26;;;;;;;2.63;1.23;;;4.30;99.90;;;;;;4994669;28;20180;-65
2023/12/27 06:03:51;;;;;;;3.83;1.10;;;4.30;99.90;;;;;;5002968;28;20179;-64
2023/12/27 06:06:17;;;;;;;3.57;1.30;;;4.20;99.90;;;;;;4998428;28;20661;-64
2023/12/27 06:08:42;;;;;;;1.40;0.87;;;4.40;99.90;;;;;;5001900;28;20604;-64
2023/12/27 06:11:11;;;;;;;2.57;1.40;;;4.10;99.90;;;;;;5000814;28;20238;-64
2023/12/27 06:13:40;;;;;;;3.20;1.13;;;4.10;99.90;;;;;;4993878;28;20651;-64
2023/12/27 06:16:06;;;;;;;2.47;1.17;;;4.10;99.90;;;;;;4996395;28;20494;-69
2023/12/27 06:18:32;;;;;;;4.50;1.63;;;4.10;99.90;;;;;;5001251;28;20493;-70
2023/12/27 06:20:58;;;;;;;2.80;1.10;;;4.30;99.90;;;;;;4994927;28;20184;-70
2023/12/27 06:23:23;;;;;;;2.10;0.97;;;4.00;99.90;;;;;;5001200;28;20474;-70
2023/12/27 06:25:49;;;;;;;2.50;0.97;;;3.90;99.90;;;;;;4993611;28;20211;-69
2023/12/27 06:28:14;;;;;;;1.33;0.67;;;3.90;99.90;;;;;;4994114;28;20196;-69
2023/12/27 06:30:40;;;;;;;2.47;0.80;;;3.90;99.90;;;;;;5002557;28;20534;-69
2023/12/27 06:33:06;;;;;;;6.10;1.50;;;3.80;99.90;;;;;;5001636;28;20215;-69
2023/12/27 06:35:31;;;;;;;3.63;1.27;;;3.80;99.90;;;;;;4998870;28;20643;-69
2023/12/27 06:37:56;;;;;;;4.87;1.53;;;3.80;99.90;;;;;;5001376;28;20180;-69
2023/12/27 06:40:22;;;;;;;4.37;1.77;;;3.80;99.90;;;;;;5000220;28;20227;-70
2023/12/27 06:42:47;;;;;;;2.13;0.90;;;3.70;99.90;;;;;;4992408;28;20222;-70
2023/12/27 06:45:13;;;;;;;2.90;1.57;;;3.70;99.90;;;;;;4995810;28;20202;-65
2023/12/27 06:47:38;;;;;;;8.63;1.50;;;3.70;99.90;;;;;;5013419;28;20190;-65
2023/12/27 06:50:05;;;;;;;7.10;1.43;;;3.70;99.90;;;;;;4996138;28;20216;-65
2023/12/27 06:52:30;;;;;;;11.40;1.50;;;3.70;99.90;;;;;;5001647;28;20199;-64
2023/12/27 06:54:56;;;;;;;2.77;1.60;;;3.60;99.90;;;;;;4997340;28;20471;-66
2023/12/27 06:57:22;;;;;;;6.60;2.37;;;3.60;99.90;;;;;;4992952;28;20210;-65
2023/12/27 06:59:47;;;;;;;6.27;1.73;;;3.70;99.90;;;;;;4993313;28;20210;-65
2023/12/27 07:02:14;;;;;;;8.83;1.87;;;3.60;99.90;;;;;;5001601;28;20443;-69
2023/12/27 07:04:40;;;;;;;3.13;1.50;;;3.50;99.90;;;;;;5008351;28;20930;-69
2023/12/27 07:07:05;;;;;;;13.20;2.43;;;3.50;99.90;;;;;;5000124;28;20194;-65
2023/12/27 07:09:31;;;;;;;3.30;1.80;;;3.40;99.90;;;;;;5001967;28;20431;-64
2023/12/27 07:11:56;;;;;;;4.53;2.13;;;3.50;99.90;;;;;;4991898;28;20633;-65
2023/12/27 07:14:22;;;;;;;2.47;1.80;;;3.50;99.90;;;;;;4950177;28;20254;-65
2023/12/27 07:16:47;;;;;;;4.53;1.50;;;4.50;99.90;;;;;;4988299;28;20951;-64
2023/12/27 07:19:13;;;;;;;2.73;1.40;;;3.60;99.90;;;;;;5003855;28;20195;-64
2023/12/27 07:21:38;;;;;;;3.80;2.23;;;3.60;99.90;;;;;;4982488;28;20192;-64
2023/12/27 07:24:05;;;;;;;4.90;2.50;;;4.50;99.90;;;;;;5005154;28;20192;-64
2023/12/27 07:26:30;;;;;;;6.37;2.17;;;3.60;99.90;;;;;;4997888;28;20249;-70
2023/12/27 07:28:55;;;;;;;5.73;2.50;;;4.50;99.90;;;;;;4995350;28;20419;-70
2023/12/27 07:31:21;;;;;;;6.90;2.87;;;3.70;99.90;;;;;;5004536;28;20216;-69
2023/12/27 07:33:46;;;;;;;11.40;2.70;;;4.50;99.90;;;;;;4990189;28;20184;-71
2023/12/27 07:36:12;;;;;;;4.30;3.00;;;4.70;99.90;;;;;;4982904;28;20207;-70
2023/12/27 07:38:37;;;;;;;4.50;2.20;;;3.70;99.90;;;;;;5003171;28;20751;-70
2023/12/27 07:41:05;;;;;;;5.23;2.87;;;3.80;99.90;;;;;;4998197;28;20574;-70
2023/12/27 07:43:30;;;;;;;8.03;2.63;;;3.70;99.90;;;;;;4991043;28;20263;-70
2023/12/27 07:45:56;;;;;;;3.63;2.13;;;3.80;99.90;;;;;;4973594;28;20517;-69
2023/12/27 07:48:22;;;;;;;3.37;1.90;;;3.90;99.90;;;;;;5005780;28;20188;-69
2023/12/27 07:50:48;;;;;;;8.60;2.67;;;4.00;99.90;;;;;;4968345;28;20275;-65
2023/12/27 07:53:13;;;;;;;5.90;2.33;;;4.90;99.90;;;;;;4961268;28;21475;-64
2023/12/27 07:55:39;;;;;;;5.23;2.83;;;4.20;99.90;;;;;;4978801;28;20700;-64
2023/12/27 07:58:04;;;;;;;3.93;1.60;;;4.30;99.90;;;;;;4997389;28;20187;-64
2023/12/27 08:00:30;;;;;;;2.63;1.83;;;4.30;99.90;;;;;;4964759;28;20274;-64
2023/12/27 08:02:58;;;;;;;5.93;2.70;;;4.40;99.90;;;;;;4919385;28;20295;-64
2023/12/27 08:05:23;;;;;;;2.60;1.70;;;4.40;99.90;;;;;;4960347;28;20194;-64
2023/12/27 08:07:49;;;;;;;5.10;2.23;;;5.00;99.90;;;;;;4952323;28;20785;-64
2023/12/27 08:10:14;;;;;;;6.93;2.30;;;4.50;99.90;;;;;;4952714;28;20711;-64
2023/12/27 08:12:40;;;;;;;6.23;2.10;;;4.50;99.90;;;;;;4934554;28;20187;-64
2023/12/27 08:15:06;;;;;;;3.20;2.10;;;4.60;99.90;;;;;;4929468;28;20219;-69
2023/12/27 08:17:33;;;;;;;6.90;2.67;;;4.60;99.90;;;;;;4971698;28;20707;-69
2023/12/27 08:19:59;;;;;;;4.30;2.13;;;5.40;99.90;;;;;;5011079;28;20476;-64
2023/12/27 08:22:24;;;;;;;3.30;1.60;;;4.70;99.90;;;;;;5005963;28;20423;-64
2023/12/27 08:24:49;;;;;;;3.00;1.93;;;4.70;99.90;;;;;;4986966;28;20207;-64
2023/12/27 08:27:15;;;;;;;7.97;1.83;;;4.70;99.90;;;;;;4994142;28;20361;-64
2023/12/27 08:29:41;;;;;;;3.40;2.10;;;4.80;99.90;;;;;;4993299;28;20200;-64
2023/12/27 08:32:08;;;;;;;7.73;2.37;;;4.80;99.90;;;;;;4993274;28;20645;-64
2023/12/27 08:34:33;;;;;;;17.10;2.20;;;4.90;99.90;;;;;;4974113;28;20527;-64
2023/12/27 08:36:59;;;;;;;13.83;2.07;;;5.50;99.90;;;;;;4997243;28;20421;-70
2023/12/27 08:39:24;;;;;;;12.90;4.80;;;5.60;99.90;;;;;;4978188;28;20188;-70
2023/12/27 08:41:50;;;;;;;11.13;5.53;;;5.00;99.90;;;;;;4995136;28;20267;-70
2023/12/27 08:44:16;;;;;;;20.53;7.30;;;5.10;99.90;;;;;;5002967;28;20198;-72
2023/12/27 08:46:41;;;;;;;17.53;6.03;;;5.60;99.90;;;;;;4991291;28;20430;-72
2023/12/27 08:49:07;;;;;;;13.23;4.60;;;5.30;99.90;;;;;;4981180;28;20189;-74
2023/12/27 08:51:33;;;;;;;13.10;4.73;;;5.30;99.90;;;;;;4984510;28;20181;-70
2023/12/27 08:53:59;;;;;;;13.23;4.40;;;6.20;99.90;;;;;;4973376;28;20180;-70
2023/12/27 08:56:24;;;;;;;4.93;2.40;;;5.30;99.90;;;;;;4995419;28;20517;-70
2023/12/27 08:58:50;;;;;;;7.30;2.40;;;5.30;99.90;;;;;;5005012;28;20194;-70
2023/12/27 09:01:16;;;;;;;5.53;2.80;;;6.20;99.90;;;;;;5003766;28;20192;-65
2023/12/27 09:03:42;;;;;;;6.23;2.60;;;5.70;99.90;;;;;;4986062;28;20189;-64
2023/12/27 09:06:08;;;;;;;5.60;2.17;;;5.30;99.90;;;;;;4999105;28;20506;-71
2023/12/27 09:08:37;;;;;;;6.07;2.30;;;5.40;99.90;;;;;;4992880;28;20183;-71
2023/12/27 09:11:04;;;;;;;6.77;2.10;;;5.60;99.90;;;;;;4994375;28;20925;-72
2023/12/27 09:13:29;;;;;;;2.70;1.23;;;5.70;99.90;;;;;;4994750;28;20427;-70
2023/12/27 09:15:55;;;;;;;3.57;1.70;;;5.70;99.90;;;;;;4995312;28;20473;-65
2023/12/27 09:18:20;;;;;;;2.03;1.00;;;5.80;99.90;;;;;;4998290;28;20762;-65
2023/12/27 09:20:46;;;;;;;1.80;1.10;;;5.90;99.90;;;;;;4988093;28;20214;-71
2023/12/27 09:23:11;;;;;;;4.37;1.73;;;5.90;99.90;;;;;;4986303;28;20814;-71
2023/12/27 09:25:37;;;;;;;7.20;1.60;;;5.80;99.90;;;;;;4983658;28;20230;-65
2023/12/27 09:28:03;;;;;;;3.43;1.40;;;5.50;99.90;;;;;;4991071;28;20192;-66
2023/12/27 09:30:28;;;;;;;9.90;2.00;;;5.70;99.90;;;;;;4991201;28;20202;-71
2023/12/27 09:32:54;;;;;;;3.33;1.43;;;5.80;99.90;;;;;;4995476;28;20183;-70
2023/12/27 09:35:19;;;;;;;4.70;1.50;;;5.80;99.90;;;;;;4989471;28;20214;-66
2023/12/27 09:37:45;;;;;;;3.73;1.83;;;6.00;99.90;;;;;;5002461;28;20187;-65
2023/12/27 09:40:11;;;;;;;2.80;1.10;;;5.90;99.90;;;;;;4988157;28;20663;-70
2023/12/27 09:42:39;;;;;;;3.30;1.80;;;6.00;99.90;;;;;;4987160;28;20180;-71
2023/12/27 09:45:08;;;;;;;4.23;1.03;;;6.10;99.90;;;;;;4993066;28;20427;-70
2023/12/27 09:47:35;;;;;;;2.70;1.17;;;6.10;99.90;;;;;;4992370;28;20911;-70
2023/12/27 09:50:01;;;;;;;3.67;1.47;;;6.20;99.90;;;;;;4989323;28;20435;-70
2023/12/27 09:52:29;;;;;;;4.13;1.37;;;6.00;99.90;;;;;;4986974;28;20437;-70
2023/12/27 09:54:54;;;;;;;3.77;1.83;;;6.20;99.90;;;;;;4979589;28;20558;-70
2023/12/27 09:57:22;;;;;;;2.57;1.20;;;6.20;99.90;;;;;;4995650;28;20941;-70
2023/12/27 09:59:51;;;;;;;2.60;1.30;;;6.40;99.90;;;;;;4985712;28;20219;-70
2023/12/27 10:02:19;;;;;;;8.83;1.67;;;6.30;99.90;;;;;;4987988;28;21062;-70
2023/12/27 10:05:05;;;;;;;1.70;0.80;;;6.30;99.90;;;;;;4988632;28;20431;-70
2023/12/27 10:07:32;;;;;;;6.23;1.53;;;6.50;99.90;;;;;;4987584;28;21096;-71
2023/12/27 10:09:58;;;;;;;1.60;0.83;;;6.60;99.90;;;;;;4995635;28;20436;-65
2023/12/27 10:12:24;;;;;;;11.90;1.33;;;6.90;99.90;;;;;;4989036;28;20453;-66
2023/12/27 10:14:52;;;;;;;3.40;1.70;;;7.10;99.90;;;;;;4990467;28;20290;-65
2023/12/27 10:17:19;;;;;;;2.73;1.33;;;7.20;99.90;;;;;;4982376;28;20475;-70
2023/12/27 10:19:44;;;;;;;2.67;1.57;;;7.30;99.90;;;;;;4979469;28;20799;-70
2023/12/27 10:22:12;;;;;;;2.57;1.37;;;7.50;99.90;;;;;;4988128;28;20489;-66
2023/12/27 10:24:38;;;;;;;4.53;1.30;;;7.80;99.90;;;;;;4993718;28;20624;-66
2023/12/27 10:27:05;;;;;;;2.50;1.30;;;7.80;99.90;;;;;;4997992;28;20512;-65
2023/12/27 10:29:32;;;;;;;2.73;1.30;;;7.80;99.90;;;;;;5004772;28;21052;-65
2023/12/27 10:32:03;;;;;;;2.97;1.17;;;8.10;99.90;;;;;;5003128;28;20502;-65
2023/12/27 10:34:29;;;;;;;3.47;1.50;;;8.00;99.90;;;;;;4996801;28;20449;-65
2023/12/27 10:36:56;;;;;;;5.40;1.40;;;8.10;99.90;;;;;;4994212;28;20513;-70
2023/12/27 10:39:22;;;;;;;2.63;1.13;;;8.10;99.90;;;;;;5003728;28;20422;-71
2023/12/27 10:41:48;;;;;;;3.10;1.00;;;8.30;99.90;;;;;;4997903;28;20415;-65
2023/12/27 10:44:18;;;;;;;1.90;0.90;;;8.50;99.90;;;;;;4986879;28;20776;-65
2023/12/27 10:46:44;;;;;;;2.77;1.27;;;8.60;99.80;;;;;;4992168;28;20180;-70
2023/12/27 10:49:15;;;;;;;6.47;1.20;;;8.90;99.30;;;;;;5003392;28;20423;-71
2023/12/27 10:51:41;;;;;;;3.70;1.30;;;9.10;98.70;;;;;;4991913;28;20423;-71
2023/12/27 10:54:09;;;;;;;3.63;1.37;;;9.20;98.20;;;;;;5005791;28;20421;-71
2023/12/27 10:56:39;;;;;;;2.80;1.20;;;9.20;98.10;;;;;;4986593;28;20892;-70
2023/12/27 10:59:06;;;;;;;2.50;1.07;;;9.30;98.20;;;;;;4996178;28;20403;-70
2023/12/27 11:01:34;;;;;;;4.50;1.30;;;9.20;97.20;;;;;;4992914;28;20915;-70
2023/12/27 11:04:05;;;;;;;3.57;1.30;;;9.40;97.60;;;;;;4984216;28;20939;-70
2023/12/27 11:06:31;;;;;;;3.40;0.97;;;9.30;97.90;;;;;;4986338;28;20437;-70
2023/12/27 11:08:57;;;;;;;2.47;1.00;;;9.50;97.40;;;;;;5005784;28;20422;-70
2023/12/27 11:11:25;;;;;;;5.53;1.20;;;9.70;96.90;;;;;;4998349;28;20187;-71
2023/12/27 11:13:52;;;;;;;2.50;1.33;;;9.90;95.80;;;;;;5006709;28;20422;-70
2023/12/27 11:16:22;;;;;;;3.63;1.27;;;10.00;95.50;;;;;;4995711;28;21517;-65
2023/12/27 11:18:50;;;;;;;3.43;1.27;;;10.00;95.80;;;;;;5007897;28;20469;-65
2023/12/27 11:21:16;;;;;;;3.47;1.27;;;10.20;95.40;;;;;;5006136;28;20417;-65
2023/12/27 11:23:43;;;;;;;4.80;1.20;;;10.30;94.30;;;;;;4998629;28;20418;-65
2023/12/27 11:26:09;;;;;;;6.17;1.37;;;10.50;95.20;;;;;;4991917;28;20180;-65
2023/12/27 11:28:39;;;;;;;2.63;1.10;;;10.30;94.40;;;;;;4990423;28;20451;-65
2023/12/27 11:31:05;;;;;;;2.90;1.00;;;10.40;94.60;;;;;;5000917;28;20883;-70
2023/12/27 11:33:34;;;;;;;6.73;1.20;;;10.50;93.80;;;;;;5001943;28;20460;-70
2023/12/27 11:36:01;;;;;;;4.33;1.27;;;10.50;93.90;;;;;;5002402;28;20466;-66
2023/12/27 11:38:28;;;;;;;1.67;1.00;;;10.50;93.70;;;;;;4947577;28;21185;-65
2023/12/27 11:40:57;;;;;;;3.73;1.60;;;10.50;93.70;;;;;;4985109;28;20926;-65
2023/12/27 11:43:25;;;;;;;1.73;0.97;;;10.50;94.10;;;;;;4989616;28;20900;-65
2023/12/27 11:46:10;;;;;;;6.00;1.60;;;10.50;93.00;;;;;;4988955;28;20442;-65
2023/12/27 11:48:36;;;;;;;2.57;1.03;;;10.50;93.00;;;;;;4984530;28;20423;-66
2023/12/27 11:51:22;;;;;;;3.30;1.30;;;10.40;92.90;;;;;;4980824;28;20938;-70
2023/12/27 11:53:48;;;;;;;2.30;1.03;;;10.40;92.40;;;;;;4981810;28;20534;-70
2023/12/27 11:56:15;;;;;;;3.00;1.30;;;10.40;92.00;;;;;;4988901;28;20577;-70
2023/12/27 11:58:41;;;;;;;1.97;1.20;;;10.30;92.80;;;;;;4992589;28;20226;-70
2023/12/27 12:01:28;;;;;;;1.87;1.00;;;10.30;92.90;;;;;;4995116;28;20498;-70
2023/12/27 12:04:36;;;;;;;1.90;0.93;;;10.20;93.40;;;;;;4988793;28;20891;-70
2023/12/27 12:07:40;;;;;;;1.50;0.90;;;10.30;93.70;;;;;;4976474;28;20462;-70
2023/12/27 12:10:20;;;;;;;2.77;1.23;;;10.10;93.80;;;;;;4956144;28;20422;-66
2023/12/27 12:12:46;;;;;;;3.40;1.33;;;10.10;93.60;;;;;;4995867;28;20425;-65
2023/12/27 12:15:12;;;;;;;2.90;1.40;;;10.10;93.70;;;;;;4998409;28;20458;-70
2023/12/27 12:17:39;;;;;;;3.83;1.27;;;10.10;94.10;;;;;;4998872;28;20465;-70
2023/12/27 12:20:06;;;;;;;4.60;1.70;;;10.00;94.10;;;;;;4984467;28;20538;-70
2023/12/27 12:22:34;;;;;;;2.13;1.40;;;9.90;94.80;;;;;;5005247;28;20424;-70
2023/12/27 12:25:08;;;;;;;3.43;1.30;;;10.00;93.80;;;;;;4998073;28;20438;-66
2023/12/27 12:27:34;;;;;;;2.23;1.10;;;9.90;94.90;;;;;;4984616;28;20435;-65
2023/12/27 12:30:00;;;;;;;2.63;1.33;;;10.00;94.20;;;;;;4993762;28;20435;-65
2023/12/27 12:32:25;;;;;;;2.53;1.33;;;10.00;95.10;;;;;;4993160;28;20187;-66
2023/12/27 12:34:51;;;;;;;2.07;1.10;;;10.10;95.20;;;;;;4975324;28;20417;-66
2023/12/27 12:37:17;;;;;;;3.80;1.50;;;9.90;95.50;;;;;;4990374;28;20430;-65
2023/12/27 12:39:44;;;;;;;3.10;1.20;;;9.90;95.40;;;;;;4997951;28;20522;-65
2023/12/27 12:42:10;;;;;;;3.83;1.10;;;9.90;95.50;;;;;;4985000;28;20423;-65
2023/12/27 12:44:36;;;;;;;2.93;1.60;;;9.90;95.50;;;;;;4996107;28;20960;-66
2023/12/27 12:47:02;;;;;;;2.40;1.10;;;9.90;95.70;;;;;;4991909;28;20226;-65
2023/12/27 12:49:29;;;;;;;2.63;1.50;;;9.90;95.20;;;;;;4979113;28;20484;-66
2023/12/27 12:52:05;;;;;;;2.60;1.20;;;10.00;95.10;;;;;;4995145;28;20509;-65